Time;durP1;ratioP1;P1;durP2;ratioP2;P2;SDS_P1;SDS_P2;PMS_P1;PMS_P2;Temp;Humidity;BMP_temperature;BMP_pressure;BME280_temperature;BME280_humidity;BME280_pressure;Samples;Min_cycle;Max_cycle;Signal;HPM_P1;HPM_P2
2023/06/04 00:00:03;;;;;;;;;;;14.10;99.90;;;;;;5030160;28;19909;-81
2023/06/04 00:02:29;;;;;;;;;;;14.20;99.90;;;;;;5029853;28;19948;-81
2023/06/04 00:04:55;;;;;;;;;;;14.20;99.90;;;;;;5010475;28;20008;-81
2023/06/04 00:07:20;;;;;;;;;;;14.10;99.90;;;;;;5001565;28;20402;-82
2023/06/04 00:09:46;;;;;;;;;;;14.10;99.90;;;;;;5026985;28;20286;-81
2023/06/04 00:12:12;;;;;;;;;;;14.10;99.90;;;;;;5006654;28;19968;-82
2023/06/04 00:14:38;;;;;;;;;;;14.10;99.90;;;;;;4996403;28;20373;-81
2023/06/04 00:17:03;;;;;;;;;;;14.10;99.90;;;;;;5014630;28;19920;-81
2023/06/04 00:19:29;;;;;;;;;;;14.10;99.90;;;;;;4997012;28;19918;-81
2023/06/04 00:21:54;;;;;;;;;;;14.10;99.90;;;;;;5013830;28;19916;-81
2023/06/04 00:24:20;;;;;;;;;;;14.00;99.90;;;;;;5016971;28;19917;-82
2023/06/04 00:26:46;;;;;;;;;;;14.00;99.90;;;;;;5015956;28;19925;-81
2023/06/04 00:29:11;;;;;;;;;;;13.90;99.90;;;;;;5033120;28;19924;-82
2023/06/04 00:31:37;;;;;;;;;;;13.90;99.90;;;;;;5018258;28;19925;-82
2023/06/04 00:34:03;;;;;;;;;;;13.90;99.90;;;;;;5017401;28;19917;-82
2023/06/04 00:36:29;;;;;;;;;;;13.80;99.90;;;;;;5003090;28;19924;-81
2023/06/04 00:38:54;;;;;;;;;;;13.80;99.90;;;;;;5001555;28;19910;-81
2023/06/04 00:41:20;;;;;;;;;;;13.70;99.90;;;;;;5019129;28;19924;-81
2023/06/04 00:43:55;;;;;;;;;;;13.70;99.90;;;;;;5033164;28;19909;-82
2023/06/04 00:46:25;;;;;;;;;;;13.70;99.90;;;;;;5017451;28;20004;-82
2023/06/04 00:48:50;;;;;;;;;;;13.70;99.90;;;;;;5001186;28;19960;-81
2023/06/04 00:51:16;;;;;;;;;;;13.70;99.90;;;;;;4998261;28;19913;-82
2023/06/04 00:53:42;;;;;;;;;;;13.70;99.90;;;;;;4998462;28;19992;-82
2023/06/04 00:56:07;;;;;;;;;;;13.70;99.90;;;;;;5013478;28;19920;-82
2023/06/04 00:58:37;;;;;;;;;;;13.60;99.90;;;;;;4999018;28;19953;-81
2023/06/04 01:01:04;;;;;;;;;;;13.60;99.90;;;;;;5029041;28;19980;-81
2023/06/04 01:03:31;;;;;;;;;;;13.50;99.90;;;;;;5001296;28;19917;-82
2023/06/04 01:06:04;;;;;;;;;;;13.50;99.90;;;;;;5018906;28;19924;-82
2023/06/04 01:08:30;;;;;;;;;;;13.50;99.90;;;;;;5019528;28;19909;-81
2023/06/04 01:10:56;;;;;;;;;;;13.50;99.90;;;;;;5031688;28;20383;-81
2023/06/04 01:13:22;;;;;;;;;;;13.50;99.90;;;;;;5014181;28;19918;-81
2023/06/04 01:15:47;;;;;;;;;;;13.60;99.90;;;;;;5013303;28;19917;-82
2023/06/04 01:18:24;;;;;;;;;;;13.60;99.90;;;;;;5015710;28;19921;-83
2023/06/04 01:20:50;;;;;;;;;;;13.60;99.90;;;;;;5016022;28;19914;-81
2023/06/04 01:23:39;;;;;;;;;;;13.60;99.90;;;;;;5030914;28;19914;-82
2023/06/04 01:26:04;;;;;;;;;;;13.60;99.90;;;;;;5028441;28;20428;-82
2023/06/04 01:28:34;;;;;;;;;;;13.60;99.90;;;;;;5016574;28;19917;-81
2023/06/04 01:31:01;;;;;;;;;;;13.60;99.90;;;;;;5016374;28;19914;-82
2023/06/04 01:33:27;;;;;;;;;;;13.60;99.90;;;;;;5017196;28;19968;-82
2023/06/04 01:35:52;;;;;;;;;;;13.60;99.90;;;;;;5032455;28;19922;-81
2023/06/04 01:38:18;;;;;;;;;;;13.70;99.90;;;;;;5032911;28;20346;-82
2023/06/04 01:40:44;;;;;;;;;;;13.60;99.90;;;;;;5030790;28;19920;-82
2023/06/04 01:43:09;;;;;;;;;;;13.60;99.90;;;;;;5028424;28;20044;-82
2023/06/04 01:45:35;;;;;;;;;;;13.50;99.90;;;;;;5012538;28;19961;-82
2023/06/04 01:48:01;;;;;;;;;;;13.50;99.90;;;;;;5015817;28;19953;-81
2023/06/04 01:50:27;;;;;;;;;;;13.50;99.90;;;;;;5017075;28;19976;-82
2023/06/04 01:52:53;;;;;;;;;;;13.40;99.90;;;;;;5016306;28;20362;-82
2023/06/04 01:55:20;;;;;;;;;;;13.40;99.90;;;;;;5017303;28;19916;-83
2023/06/04 01:57:47;;;;;;;;;;;13.40;99.90;;;;;;5032703;28;19917;-83
2023/06/04 02:00:13;;;;;;;;;;;13.40;99.90;;;;;;5016771;28;19910;-82
2023/06/04 02:02:40;;;;;;;;;;;13.40;99.90;;;;;;5032162;28;20365;-81
2023/06/04 02:05:07;;;;;;;;;;;13.40;99.90;;;;;;5032459;28;19913;-82
2023/06/04 02:07:38;;;;;;;;;;;13.40;99.90;;;;;;5016860;28;19909;-82
2023/06/04 02:10:07;;;;;;;;;;;13.50;99.90;;;;;;5016686;28;20278;-82
2023/06/04 02:12:33;;;;;;;;;;;13.50;99.90;;;;;;5032241;28;19932;-82
2023/06/04 02:14:58;;;;;;;;;;;13.50;99.90;;;;;;5015536;28;20373;-82
2023/06/04 02:17:25;;;;;;;;;;;13.40;99.90;;;;;;5015150;28;20034;-82
2023/06/04 02:19:50;;;;;;;;;;;13.40;99.90;;;;;;5014862;28;19924;-82
2023/06/04 02:22:16;;;;;;;;;;;13.30;99.90;;;;;;5016910;28;19914;-83
2023/06/04 02:24:42;;;;;;;;;;;13.30;99.90;;;;;;5000082;28;20278;-82
2023/06/04 02:27:08;;;;;;;;;;;13.30;99.90;;;;;;5009435;28;19917;-82
2023/06/04 02:29:33;;;;;;;;;;;13.20;99.90;;;;;;5014194;28;20432;-83
2023/06/04 02:31:59;;;;;;;;;;;13.20;99.90;;;;;;5030399;28;19917;-82
2023/06/04 02:34:25;;;;;;;;;;;13.10;99.90;;;;;;5030092;28;20017;-82
2023/06/04 02:36:50;;;;;;;;;;;13.10;99.90;;;;;;5030101;28;19960;-82
2023/06/04 02:39:18;;;;;;;;;;;13.10;99.90;;;;;;5000694;28;20310;-82
2023/06/04 02:41:43;;;;;;;;;;;13.10;99.90;;;;;;5010480;28;19914;-82
2023/06/04 02:44:09;;;;;;;;;;;13.00;99.90;;;;;;4994188;28;19914;-82
2023/06/04 02:46:34;;;;;;;;;;;13.00;99.90;;;;;;5024899;28;19917;-82
2023/06/04 02:49:00;;;;;;;;;;;13.00;99.90;;;;;;4994217;28;20013;-82
2023/06/04 02:51:26;;;;;;;;;;;12.90;99.90;;;;;;4993734;28;20052;-82
2023/06/04 02:53:52;;;;;;;;;;;12.90;99.90;;;;;;5010162;28;19921;-82
2023/06/04 02:56:17;;;;;;;;;;;12.90;99.90;;;;;;4993700;28;19922;-82
2023/06/04 02:58:49;;;;;;;;;;;12.90;99.90;;;;;;4994207;28;19982;-83
2023/06/04 03:01:19;;;;;;;;;;;12.90;99.90;;;;;;4993924;28;19914;-82
2023/06/04 03:03:45;;;;;;;;;;;12.80;99.90;;;;;;4994170;28;19914;-82
2023/06/04 03:06:14;;;;;;;;;;;12.70;99.90;;;;;;4994107;28;19914;-82
2023/06/04 03:08:40;;;;;;;;;;;12.70;99.90;;;;;;5010494;28;19960;-82
2023/06/04 03:11:05;;;;;;;;;;;12.70;99.90;;;;;;5048916;28;19913;-82
2023/06/04 03:13:31;;;;;;;;;;;12.70;99.90;;;;;;5051049;28;19913;-82
2023/06/04 03:16:00;;;;;;;;;;;12.70;99.90;;;;;;5033202;28;19913;-81
2023/06/04 03:18:26;;;;;;;;;;;12.80;99.90;;;;;;5033610;28;19913;-82
2023/06/04 03:20:52;;;;;;;;;;;12.90;99.90;;;;;;5033284;28;19913;-82
2023/06/04 03:23:18;;;;;;;;;;;12.80;99.90;;;;;;5028749;28;19976;-82
2023/06/04 03:25:44;;;;;;;;;;;12.80;99.90;;;;;;5029797;28;19925;-82
2023/06/04 03:28:10;;;;;;;;;;;12.80;99.90;;;;;;5029900;28;19924;-82
2023/06/04 03:30:35;;;;;;;;;;;12.80;99.90;;;;;;4999329;28;20314;-82
2023/06/04 03:33:01;;;;;;;;;;;12.90;99.90;;;;;;4994244;28;19944;-82
2023/06/04 03:35:26;;;;;;;;;;;12.80;99.90;;;;;;4995143;28;19961;-82
2023/06/04 03:37:52;;;;;;;;;;;12.80;99.90;;;;;;4997298;28;19928;-82
2023/06/04 03:40:17;;;;;;;;;;;12.80;99.90;;;;;;5013989;28;19918;-82
2023/06/04 03:42:43;;;;;;;;;;;12.80;99.90;;;;;;5014798;28;19917;-82
2023/06/04 03:45:08;;;;;;;;;;;12.70;99.90;;;;;;5000487;28;19918;-82
2023/06/04 03:47:34;;;;;;;;;;;12.70;99.90;;;;;;4994778;28;19925;-82
2023/06/04 03:49:59;;;;;;;;;;;12.70;99.90;;;;;;5010667;28;19914;-81
2023/06/04 03:52:25;;;;;;;;;;;12.60;99.90;;;;;;4994555;28;19914;-82
2023/06/04 03:54:50;;;;;;;;;;;12.70;99.90;;;;;;5010805;28;19914;-82
2023/06/04 03:57:16;;;;;;;;;;;12.70;99.90;;;;;;4998651;28;19924;-82
2023/06/04 03:59:41;;;;;;;;;;;12.70;99.90;;;;;;5014415;28;19914;-82
2023/06/04 04:02:07;;;;;;;;;;;12.80;99.90;;;;;;4998447;28;19964;-81
2023/06/04 04:04:33;;;;;;;;;;;12.90;99.90;;;;;;4999575;28;19918;-82
2023/06/04 04:07:00;;;;;;;;;;;12.90;99.90;;;;;;4999278;28;20378;-81
2023/06/04 04:09:26;;;;;;;;;;;12.90;99.90;;;;;;5014316;28;20366;-82
2023/06/04 04:11:51;;;;;;;;;;;13.00;99.90;;;;;;4998565;28;19918;-82
2023/06/04 04:14:17;;;;;;;;;;;13.00;99.90;;;;;;5014232;28;19920;-81
2023/06/04 04:16:42;;;;;;;;;;;13.00;99.90;;;;;;5013809;28;19914;-82
2023/06/04 04:19:08;;;;;;;;;;;13.00;99.90;;;;;;5014020;28;19914;-82
2023/06/04 04:21:36;;;;;;;;;;;13.10;99.90;;;;;;4998509;28;19959;-82
2023/06/04 04:24:02;;;;;;;;;;;13.10;99.90;;;;;;5013969;28;19910;-82
2023/06/04 04:26:28;;;;;;;;;;;13.10;99.90;;;;;;5013766;28;20004;-82
2023/06/04 04:28:57;;;;;;;;;;;13.20;99.90;;;;;;4998781;28;19925;-82
2023/06/04 04:31:23;;;;;;;;;;;13.10;99.90;;;;;;5013474;28;19957;-82
2023/06/04 04:33:51;;;;;;;;;;;13.10;99.90;;;;;;5014065;28;19914;-82
2023/06/04 04:36:18;;;;;;;;;;;13.10;99.90;;;;;;4997563;28;19918;-82
2023/06/04 04:38:44;;;;;;;;;;;13.10;99.90;;;;;;5013604;28;19914;-82
2023/06/04 04:41:11;;;;;;;;;;;13.10;99.90;;;;;;4996956;28;20321;-82
2023/06/04 04:43:40;;;;;;;;;;;13.10;99.90;;;;;;5013906;28;20004;-82
2023/06/04 04:46:06;;;;;;;;;;;13.20;99.90;;;;;;4997553;28;19918;-82
2023/06/04 04:48:31;;;;;;;;;;;13.20;99.90;;;;;;4998304;28;19936;-82
2023/06/04 04:50:57;;;;;;;;;;;13.20;99.90;;;;;;4995913;28;19914;-82
2023/06/04 04:53:23;;;;;;;;;;;13.20;99.90;;;;;;4995772;28;19956;-82
2023/06/04 04:55:49;;;;;;;;;;;13.30;99.90;;;;;;5007965;28;19905;-82
2023/06/04 04:58:15;;;;;;;;;;;13.30;99.90;;;;;;5015344;28;19910;-78
2023/06/04 05:00:41;;;;;;;;;;;13.40;99.90;;;;;;5016735;28;19909;-79
2023/06/04 05:03:06;;;;;;;;;;;13.40;99.90;;;;;;5016268;28;19992;-78
2023/06/04 05:05:32;;;;;;;;;;;13.50;99.90;;;;;;5016174;28;24059;-78
2023/06/04 05:08:00;;;;;;;;;;;13.50;99.90;;;;;;5010663;28;19917;-78
2023/06/04 05:10:26;;;;;;;;;;;13.60;99.90;;;;;;5041037;28;24060;-79
2023/06/04 05:12:55;;;;;;;;;;;13.60;99.90;;;;;;5033866;28;19987;-79
2023/06/04 05:15:22;;;;;;;;;;;13.70;99.90;;;;;;5020043;28;19917;-80
2023/06/04 05:17:47;;;;;;;;;;;13.70;99.90;;;;;;5013891;28;24128;-81
2023/06/04 05:20:14;;;;;;;;;;;13.70;99.90;;;;;;5030381;28;24067;-80
2023/06/04 05:22:39;;;;;;;;;;;13.70;99.90;;;;;;5014029;28;19967;-80
2023/06/04 05:25:08;;;;;;;;;;;13.70;99.90;;;;;;5015387;28;24125;-81
2023/06/04 05:27:35;;;;;;;;;;;13.70;99.90;;;;;;5015840;28;24101;-79
2023/06/04 05:30:03;;;;;;;;;;;13.70;99.90;;;;;;5008542;28;19914;-79
2023/06/04 05:32:29;;;;;;;;;;;13.80;99.90;;;;;;5001319;28;24075;-79
2023/06/04 05:34:56;;;;;;;;;;;13.80;99.90;;;;;;5015766;28;19913;-80
2023/06/04 05:37:23;;;;;;;;;;;13.90;99.90;;;;;;5020159;28;20388;-79
2023/06/04 05:39:49;;;;;;;;;;;14.00;99.90;;;;;;5023260;28;19909;-81
2023/06/04 05:42:15;;;;;;;;;;;14.10;99.90;;;;;;5033762;28;19916;-80
2023/06/04 05:44:40;;;;;;;;;;;14.20;99.90;;;;;;5034239;28;20277;-80
2023/06/04 05:47:06;;;;;;;;;;;14.30;99.90;;;;;;5034678;28;20381;-81
2023/06/04 05:49:34;;;;;;;;;;;14.40;99.90;;;;;;5034150;28;24074;-80
2023/06/04 05:51:59;;;;;;;;;;;14.50;99.90;;;;;;5035591;28;19909;-81
2023/06/04 05:54:25;;;;;;;;;;;14.50;99.90;;;;;;5028131;28;20001;-81
2023/06/04 05:56:51;;;;;;;;;;;14.60;99.90;;;;;;4995978;28;20290;-81
2023/06/04 05:59:16;;;;;;;;;;;14.60;99.90;;;;;;4995431;28;20294;-80
2023/06/04 06:01:43;;;;;;;;;;;14.70;99.90;;;;;;4995589;28;19932;-80
2023/06/04 06:04:08;;;;;;;;;;;14.70;99.90;;;;;;4995891;28;20093;-80
2023/06/04 06:06:35;;;;;;;;;;;14.80;99.90;;;;;;4993153;28;19937;-80
2023/06/04 06:09:00;;;;;;;;;;;14.80;99.90;;;;;;5012944;28;19949;-79
2023/06/04 06:11:26;;;;;;;;;;;14.80;99.90;;;;;;5030496;28;20073;-80
2023/06/04 06:13:53;;;;;;;;;;;14.90;99.90;;;;;;5013909;28;20041;-80
2023/06/04 06:16:18;;;;;;;;;;;14.90;99.90;;;;;;5002307;28;19917;-80
2023/06/04 06:18:44;;;;;;;;;;;14.90;99.90;;;;;;5005665;28;20058;-80
2023/06/04 06:21:09;;;;;;;;;;;15.10;99.90;;;;;;5018040;28;20433;-81
2023/06/04 06:23:35;;;;;;;;;;;15.10;99.90;;;;;;5002544;28;20388;-80
2023/06/04 06:26:01;;;;;;;;;;;15.10;99.90;;;;;;5028802;28;20041;-81
2023/06/04 06:28:27;;;;;;;;;;;15.20;99.90;;;;;;5016109;28;20046;-80
2023/06/04 06:30:53;;;;;;;;;;;15.20;99.90;;;;;;5031159;28;20045;-80
2023/06/04 06:33:21;;;;;;;;;;;15.30;99.90;;;;;;5016294;28;20502;-80
2023/06/04 06:35:47;;;;;;;;;;;15.30;99.90;;;;;;5031313;28;20031;-80
2023/06/04 06:38:13;;;;;;;;;;;15.40;99.90;;;;;;5015832;28;19914;-80
2023/06/04 06:40:40;;;;;;;;;;;15.50;99.90;;;;;;5031085;28;20529;-81
2023/06/04 06:43:05;;;;;;;;;;;15.50;99.90;;;;;;5050989;28;20037;-80
2023/06/04 06:45:31;;;;;;;8.80;6.40;;;15.60;99.90;;;;;;5051015;28;19905;-81
2023/06/04 06:47:57;;;;;;;8.07;6.07;;;15.60;99.90;;;;;;4998392;28;20084;-80
2023/06/04 06:50:22;;;;;;;10.07;7.53;;;15.60;99.90;;;;;;5031579;28;20076;-81
2023/06/04 06:52:49;;;;;;;9.57;7.60;;;15.70;99.90;;;;;;5006917;28;20030;-80
2023/06/04 06:55:15;;;;;;;8.65;6.32;;;15.80;99.90;;;;;;5006453;28;20031;-81
2023/06/04 06:57:41;;;;;;;11.05;7.35;;;16.00;99.90;;;;;;5016288;28;20029;-80
2023/06/04 07:00:07;;;;;;;9.05;6.63;;;16.10;99.90;;;;;;5031868;28;20118;-80
2023/06/04 07:02:33;;;;;;;8.88;6.28;;;16.30;99.90;;;;;;5031867;28;20030;-80
2023/06/04 07:04:58;;;;;;;7.63;5.85;;;16.40;99.90;;;;;;5017946;28;20081;-87
2023/06/04 07:07:24;;;;;;;9.75;5.70;;;16.40;99.90;;;;;;5023237;28;20034;-88
2023/06/04 07:09:50;;;;;;;6.82;5.22;;;16.40;99.90;;;;;;5028391;28;20033;-87
2023/06/04 07:12:15;;;;;;;7.65;5.43;;;16.60;99.90;;;;;;5040506;28;20037;-87
2023/06/04 07:14:42;;;;;;;8.52;5.82;;;16.70;99.90;;;;;;5040790;28;20033;-87
2023/06/04 07:17:08;;;;;;;7.25;5.75;;;16.80;99.90;;;;;;5041416;28;20030;-87
2023/06/04 07:19:33;;;;;;;8.10;5.53;;;16.90;99.90;;;;;;5040998;28;20089;-87
2023/06/04 07:21:59;;;;;;;10.15;6.03;;;17.00;99.90;;;;;;5040551;28;20021;-87
2023/06/04 07:24:25;;;;;;;9.65;6.13;;;17.10;99.90;;;;;;5055155;28;20022;-86
2023/06/04 07:26:50;;;;;;;9.35;5.95;;;17.10;99.90;;;;;;5035326;28;20030;-86
2023/06/04 07:29:16;;;;;;;7.78;6.10;;;17.20;99.90;;;;;;5033447;28;20121;-86
2023/06/04 07:31:42;;;;;;;8.07;5.43;;;17.20;99.90;;;;;;5050962;28;20029;-85
2023/06/04 07:34:08;;;;;;;8.55;5.38;;;17.30;99.90;;;;;;5036810;28;20033;-85
2023/06/04 07:36:33;;;;;;;7.55;5.03;;;17.40;99.90;;;;;;5037148;28;20430;-86
2023/06/04 07:39:04;;;;;;;9.10;6.05;;;17.60;99.90;;;;;;5035016;28;20028;-86
2023/06/04 07:41:30;;;;;;;7.38;5.68;;;17.80;99.90;;;;;;5017707;28;20025;-86
2023/06/04 07:43:56;;;;;;;6.68;5.07;;;18.00;99.90;;;;;;5016750;28;20030;-85
2023/06/04 07:46:21;;;;;;;6.72;4.63;;;18.10;99.90;;;;;;5016715;28;20510;-85
2023/06/04 07:48:47;;;;;;;6.07;4.38;;;18.20;99.90;;;;;;5017141;28;20029;-86
2023/06/04 07:51:13;;;;;;;6.05;4.32;;;18.30;99.90;;;;;;5016773;28;20038;-85
2023/06/04 07:53:39;;;;;;;6.38;3.97;;;18.30;99.90;;;;;;5016834;28;20036;-85
2023/06/04 07:56:06;;;;;;;6.45;3.92;;;18.40;99.90;;;;;;5032310;28;20030;-85
2023/06/04 07:58:32;;;;;;;5.00;3.33;;;18.60;99.90;;;;;;5032242;28;20026;-85
2023/06/04 08:00:57;;;;;;;;;;;18.70;99.90;;;;;;5016709;28;20042;-85
2023/06/04 08:03:23;;;;;;;;;;;18.90;99.90;;;;;;5032432;28;20485;-85
2023/06/04 08:05:49;;;;;;;;;;;19.00;99.90;;;;;;5032898;28;19906;-85
2023/06/04 08:08:15;;;;;;;;;;;19.00;99.90;;;;;;5032304;28;19905;-85
2023/06/04 08:10:40;;;;;;;;;;;19.20;99.90;;;;;;5035347;28;19967;-85
2023/06/04 08:13:06;;;;;;;;;;;19.30;99.90;;;;;;5052121;28;19913;-85
2023/06/04 08:15:32;;;;;;;;;;;19.40;99.90;;;;;;5035535;28;20035;-84
2023/06/04 08:17:57;;;;;;;;;;;19.50;99.90;;;;;;5035227;28;19924;-84
2023/06/04 08:20:23;;;;;;;;;;;19.60;99.90;;;;;;5035726;28;19931;-84
2023/06/04 08:22:49;;;;;;;;;;;19.70;99.90;;;;;;5051860;28;20042;-84
2023/06/04 08:25:15;;;;;;;;;;;19.90;99.90;;;;;;5035855;28;19940;-85
2023/06/04 08:27:41;;;;;;;;;;;20.00;99.90;;;;;;5036889;28;20460;-84
2023/06/04 08:30:07;;;;;;;;;;;20.10;99.90;;;;;;5053630;28;20028;-85
2023/06/04 08:32:33;;;;;;;;;;;20.10;99.90;;;;;;5036954;28;19905;-84
2023/06/04 08:34:58;;;;;;;;;;;20.20;99.90;;;;;;5036688;28;19909;-84
2023/06/04 08:37:24;;;;;;;;;;;20.30;99.90;;;;;;5037723;28;19913;-84
2023/06/04 08:39:50;;;;;;;;;;;20.40;99.90;;;;;;5029083;28;19944;-84
2023/06/04 08:42:21;;;;;;;;;;;20.30;99.90;;;;;;5001593;28;20282;-84
2023/06/04 08:44:52;;;;;;;;;;;20.30;99.90;;;;;;5017652;28;19905;-84
2023/06/04 08:47:18;;;;;;;;;;;20.40;99.90;;;;;;5017891;28;19917;-84
2023/06/04 08:49:45;;;;;;;;;;;20.30;99.90;;;;;;5001024;28;19910;-84
2023/06/04 08:52:10;;;;;;;;;;;20.30;99.90;;;;;;4988775;28;19914;-84
2023/06/04 08:54:36;;;;;;;;;;;20.40;99.90;;;;;;5013772;28;19912;-84
2023/06/04 08:57:03;;;;;;;;;;;20.60;99.90;;;;;;5013417;28;19920;-84
2023/06/04 08:59:29;;;;;;;;;;;20.80;99.90;;;;;;5013800;28;19909;-84
2023/06/04 09:01:54;;;;;;;;;;;21.00;99.90;;;;;;5013919;28;19948;-84
2023/06/04 09:04:20;;;;;;;;;;;21.10;99.90;;;;;;5010122;28;19909;-84
2023/06/04 09:06:46;;;;;;;;;;;21.30;99.90;;;;;;5016320;28;19916;-86
2023/06/04 09:09:15;;;;;;;;;;;21.30;99.90;;;;;;5035556;28;19944;-84
2023/06/04 09:11:50;;;;;;;;;;;21.30;99.90;;;;;;5026370;28;19906;-84
2023/06/04 09:14:19;;;;;;;;;;;21.30;99.00;;;;;;5028278;28;19916;-85
2023/06/04 09:16:48;;;;;;;;;;;21.30;98.10;;;;;;5010593;28;19917;-84
2023/06/04 09:19:14;;;;;;;;;;;21.10;98.40;;;;;;5017170;28;19948;-84
2023/06/04 09:21:56;;;;;;;;;;;21.10;99.30;;;;;;5032723;28;19909;-84
2023/06/04 09:24:39;;;;;;;;;;;21.00;98.90;;;;;;5032132;28;19914;-85
2023/06/04 09:27:12;;;;;;;;;;;21.10;98.20;;;;;;5032215;28;19932;-85
2023/06/04 09:29:38;;;;;;;;;;;21.10;99.40;;;;;;5032366;28;19996;-84
2023/06/04 09:32:04;;;;;;;;;;;21.20;98.70;;;;;;5015589;28;19964;-85
2023/06/04 09:34:30;;;;;;;;;;;21.20;98.40;;;;;;5014733;28;19959;-84
2023/06/04 09:36:56;;;;;;;;;;;21.10;97.70;;;;;;4999840;28;20008;-84
2023/06/04 09:39:23;;;;;;;;;;;21.10;98.10;;;;;;5020922;28;20380;-84
2023/06/04 09:41:59;;;;;;;;;;;21.10;98.10;;;;;;5036066;28;19916;-84
2023/06/04 09:44:24;;;;;;;;;;;21.10;97.60;;;;;;5052503;28;19912;-84
2023/06/04 09:46:54;;;;;;;;;;;21.20;97.40;;;;;;5053027;28;19906;-85
2023/06/04 09:49:20;;;;;;;;;;;21.20;97.60;;;;;;5036996;28;19912;-84
2023/06/04 09:51:48;;;;;;;;;;;21.40;96.90;;;;;;5035785;28;19909;-83
2023/06/04 09:54:14;;;;;;;;;;;21.50;97.40;;;;;;5036291;28;19909;-84
2023/06/04 09:56:40;;;;;;;;;;;21.50;97.70;;;;;;5035399;28;20288;-79
2023/06/04 09:59:07;;;;;;;;;;;21.60;96.90;;;;;;5035868;28;19905;-79
2023/06/04 10:01:36;;;;;;;;;;;21.80;95.90;;;;;;5036050;28;20304;-79
2023/06/04 10:04:06;;;;;;;;;;;21.90;95.80;;;;;;5036089;28;20057;-79
2023/06/04 10:06:35;;;;;;;;;;;21.90;94.60;;;;;;5051272;28;19905;-79
2023/06/04 10:09:07;;;;;;;;;;;22.00;96.20;;;;;;5033569;28;19944;-78
2023/06/04 10:11:50;;;;;;;;;;;22.20;95.00;;;;;;5015987;28;20277;-79
2023/06/04 10:14:19;;;;;;;;;;;22.30;95.00;;;;;;5016109;28;19909;-79
2023/06/04 10:16:46;;;;;;;;;;;22.50;94.30;;;;;;5031193;28;19963;-78
2023/06/04 10:19:12;;;;;;;;;;;22.60;91.80;;;;;;5031212;28;19917;-78
2023/06/04 10:21:37;;;;;;;;;;;22.70;91.60;;;;;;5015787;28;19906;-78
2023/06/04 10:24:03;;;;;;;;;;;22.80;91.20;;;;;;5031277;28;19963;-78
2023/06/04 10:26:29;;;;;;;;;;;22.80;92.10;;;;;;5015480;28;19905;-79
2023/06/04 10:28:56;;;;;;;;;;;22.90;93.10;;;;;;5030741;28;19914;-79
2023/06/04 10:31:22;;;;;;;;;;;23.10;91.40;;;;;;5015789;28;19912;-79
2023/06/04 10:33:47;;;;;;;;;;;23.30;88.00;;;;;;5015852;28;20276;-79
2023/06/04 10:36:18;;;;;;;;;;;23.30;88.20;;;;;;5030947;28;19913;-78
2023/06/04 10:38:45;;;;;;;;;;;23.30;88.90;;;;;;5016074;28;19906;-78
2023/06/04 10:41:16;;;;;;;;;;;23.30;89.80;;;;;;4995963;28;19914;-78
2023/06/04 10:43:42;;;;;;;;;;;23.20;88.50;;;;;;4996458;28;19953;-78
2023/06/04 10:46:14;;;;;;;;;;;23.20;91.20;;;;;;4996586;28;20368;-78
2023/06/04 10:48:47;;;;;;;;;;;23.10;90.60;;;;;;5011203;28;19996;-78
2023/06/04 10:51:13;;;;;;;;;;;23.00;90.10;;;;;;4996000;28;19960;-79
2023/06/04 10:53:38;;;;;;;;;;;22.90;90.10;;;;;;4995944;28;19910;-78
2023/06/04 10:56:04;;;;;;;;;;;22.90;89.80;;;;;;5011949;28;19909;-79
2023/06/04 10:58:35;;;;;;;;;;;22.80;89.90;;;;;;4996516;28;19917;-78
2023/06/04 11:01:01;;;;;;;;;;;22.80;87.80;;;;;;4996621;28;19905;-78
2023/06/04 11:03:36;;;;;;;;;;;22.80;90.10;;;;;;5001201;28;19972;-78
2023/06/04 11:06:02;;;;;;;;;;;22.90;87.90;;;;;;4997435;28;19910;-78
2023/06/04 11:08:28;;;;;;;;;;;22.90;89.80;;;;;;5016298;28;19914;-78
2023/06/04 11:10:54;;;;;;;;;;;22.90;89.40;;;;;;5031020;28;20277;-78
2023/06/04 11:13:26;;;;;;;;;;;22.90;89.10;;;;;;5015087;28;19909;-78
2023/06/04 11:15:51;;;;;;;;;;;23.00;84.80;;;;;;5015918;28;20009;-78
2023/06/04 11:18:18;;;;;;;;;;;22.90;88.90;;;;;;5015631;28;20013;-78
2023/06/04 11:21:04;;;;;;;;;;;22.80;87.30;;;;;;5016237;28;19916;-78
2023/06/04 11:23:29;;;;;;;;;;;22.80;89.90;;;;;;5016132;28;19989;-78
2023/06/04 11:25:55;;;;;;;;;;;22.80;86.60;;;;;;5016465;28;20346;-78
2023/06/04 11:28:23;;;;;;;;;;;22.90;86.60;;;;;;5015543;28;19940;-78
2023/06/04 11:30:59;;;;;;;;;;;22.90;87.10;;;;;;5015007;28;19909;-78
2023/06/04 11:33:24;;;;;;;;;;;22.90;87.10;;;;;;5014455;28;20277;-78
2023/06/04 11:35:50;;;;;;;;;;;23.10;89.90;;;;;;5014181;28;19912;-78
2023/06/04 11:38:15;;;;;;;;;;;23.20;88.10;;;;;;5029592;28;19913;-78
2023/06/04 11:40:43;;;;;;;;;;;23.10;88.20;;;;;;5036220;28;19910;-78
2023/06/04 11:43:10;;;;;;;;;;;23.00;87.90;;;;;;5014375;28;20345;-78
2023/06/04 11:45:36;;;;;;;;;;;22.90;84.80;;;;;;5014580;28;19905;-78
2023/06/04 11:48:03;;;;;;;;;;;22.70;82.90;;;;;;5014739;28;20381;-78
2023/06/04 11:50:29;;;;;;;;;;;22.60;86.80;;;;;;5030028;28;19912;-78
2023/06/04 11:52:55;;;;;;;;;;;22.50;86.90;;;;;;5014715;28;19917;-78
2023/06/04 11:55:20;;;;;;;;;;;22.50;86.70;;;;;;5015240;28;19964;-77
2023/06/04 11:57:46;;;;;;;;;;;22.60;86.60;;;;;;5014958;28;19910;-78
2023/06/04 12:00:13;;;;;;;;;;;22.70;85.00;;;;;;5015043;28;19949;-77
2023/06/04 12:02:47;;;;;;;;;;;22.80;86.00;;;;;;5015822;28;19917;-78
2023/06/04 12:05:13;;;;;;;;;;;23.00;87.60;;;;;;5031045;28;19905;-78
2023/06/04 12:07:39;;;;;;;;;;;23.20;83.80;;;;;;5015380;28;19909;-77
2023/06/04 12:10:05;;;;;;;;;;;23.10;82.30;;;;;;5026307;28;19917;-77
2023/06/04 12:12:31;;;;;;;;;;;22.90;83.60;;;;;;5034822;28;19909;-78
2023/06/04 12:14:59;;;;;;;;;;;22.60;82.50;;;;;;5024451;28;19916;-77
2023/06/04 12:17:25;;;;;;;;;;;22.40;82.50;;;;;;5015888;28;19909;-77
2023/06/04 12:19:51;;;;;;;;;;;22.20;83.70;;;;;;5018333;28;20335;-78
2023/06/04 12:22:17;;;;;;;;;;;22.20;85.10;;;;;;5018599;28;19964;-78
2023/06/04 12:24:46;;;;;;;;;;;22.30;85.80;;;;;;5033816;28;20391;-77
2023/06/04 12:27:12;;;;;;;;;;;22.40;83.60;;;;;;5018501;28;19909;-78
2023/06/04 12:29:37;;;;;;;;;;;22.50;84.90;;;;;;5018851;28;20285;-78
2023/06/04 12:32:04;;;;;;;;;;;22.50;83.90;;;;;;5018813;28;19909;-78
2023/06/04 12:34:31;;;;;;;;;;;22.50;83.80;;;;;;5033926;28;19912;-78
2023/06/04 12:36:56;;;;;;;;;;;22.40;82.90;;;;;;5032990;28;19914;-78
2023/06/04 12:39:22;;;;;;;;;;;22.40;84.70;;;;;;5023055;28;19959;-77
2023/06/04 12:41:48;;;;;;;;;;;22.40;84.00;;;;;;5038381;28;19956;-77
2023/06/04 12:44:13;;;;;;;;;;;22.40;83.50;;;;;;5038817;28;19909;-78
2023/06/04 12:46:39;;;;;;;;;;;22.50;82.50;;;;;;5038955;28;19905;-78
2023/06/04 12:49:05;;;;;;;;;;;22.40;80.20;;;;;;5038336;28;19916;-77
2023/06/04 12:51:31;;;;;;;;;;;22.40;80.20;;;;;;5021332;28;20027;-78
2023/06/04 12:53:57;;;;;;;;;;;22.30;82.20;;;;;;5018090;28;19909;-78
2023/06/04 12:56:23;;;;;;;;;;;22.30;81.70;;;;;;5017710;28;19909;-78
2023/06/04 12:58:48;;;;;;;;;;;22.30;81.00;;;;;;5018361;28;19906;-78
2023/06/04 13:01:14;;;;;;;;;;;22.40;83.10;;;;;;5017988;28;19912;-78
2023/06/04 13:03:40;;;;;;;;;;;22.40;82.50;;;;;;5017892;28;20307;-77
2023/06/04 13:06:06;;;;;;;;;;;22.40;82.60;;;;;;5018369;28;19909;-78
2023/06/04 13:08:32;;;;;;;;;;;22.40;83.60;;;;;;5018969;28;19910;-78
2023/06/04 13:10:57;;;;;;;;;;;22.50;83.90;;;;;;5018573;28;20015;-78
2023/06/04 13:13:23;;;;;;;;;;;22.50;83.60;;;;;;5037333;28;19905;-79
2023/06/04 13:15:49;;;;;;;;;;;22.60;82.30;;;;;;5036826;28;20357;-78
2023/06/04 13:18:14;;;;;;;;;;;22.60;82.00;;;;;;5052510;28;20369;-78
2023/06/04 13:20:40;;;;;;;;;;;22.30;82.10;;;;;;5035130;28;19909;-78
2023/06/04 13:23:06;;;;;;;;;;;22.30;82.40;;;;;;5036850;28;19994;-78
2023/06/04 13:25:33;;;;;;;;;;;22.30;79.70;;;;;;5053520;28;20285;-78
2023/06/04 13:27:59;;;;;;;;;;;22.40;74.30;;;;;;5052857;28;19923;-78
2023/06/04 13:30:24;;;;;;;;;;;22.30;79.00;;;;;;5052230;28;20004;-78
2023/06/04 13:32:53;;;;;;;;;;;22.10;78.90;;;;;;5037150;28;19975;-77
2023/06/04 13:35:19;;;;;;;;;;;22.00;80.60;;;;;;5052405;28;20262;-78
2023/06/04 13:37:45;;;;;;;;;;;21.90;80.50;;;;;;5037148;28;19931;-78
2023/06/04 13:40:11;;;;;;;;;;;21.70;85.30;;;;;;5035591;28;19996;-78
2023/06/04 13:42:36;;;;;;;;;;;21.70;85.10;;;;;;5036958;28;19913;-78
2023/06/04 13:45:02;;;;;;;;;;;21.70;80.00;;;;;;5036425;28;19916;-78
2023/06/04 13:47:27;;;;;;;;;;;21.80;75.40;;;;;;5035885;28;20443;-81
2023/06/04 13:49:53;;;;;;;;;;;21.80;77.30;;;;;;5051222;28;20003;-77
2023/06/04 13:52:19;;;;;;;;;;;21.80;75.60;;;;;;5035822;28;20002;-78
2023/06/04 13:54:44;;;;;;;;;;;21.80;78.10;;;;;;5035762;28;19916;-78
2023/06/04 13:57:13;;;;;;;;;;;21.80;77.70;;;;;;5034436;28;20383;-78
2023/06/04 13:59:39;;;;;;;;;;;21.90;81.90;;;;;;5035585;28;19948;-77
2023/06/04 14:02:04;;;;;;;;;;;21.90;78.20;;;;;;5035908;28;19905;-78
2023/06/04 14:04:30;;;;;;;;;;;21.80;78.10;;;;;;5035088;28;19959;-77